Jacksonville, Florida
Current Conditions -  °F | °C
As of 9:56 AM on Wednesday 26 Nov 2014 (Local Time) from KJAX Reporting Station
Overcast Overcast  
Wind Chill: 51°   Ceiling: 800
Heat Index: 51°   Visibility: 10mi
Dew Point: 50°   Wind: 7mph
Humidity: 96%   Direction: 280°W
Pressure: 30.11"   Gusts: NA
Location:  30.32°N, 81.66°W
Report Text: KJAX 261456Z 28006KT 10SM BKN008 OVC050 11/10 A3011 RMK AO2 SLP196 60006 T01060100 53035
Loading
Personal Weather Stations






























Interactive Weather Map New forecast layout! Learn more

10-Day Weather Forecast

Advertisements
Track Severe Weather on mobile